Terminal Aerodrome Forecast
Issued by NWS Cleveland, OH

Home | Current Version | Previous Version | Text Only | Print | Product List | Glossary On
Versions: 1 2 3 4 5 6 7 8 9 10 11 12 13 14 15 16 17 18 19 20 21
000
FTUS41 KCLE 212300
TAFERI
TAF
KERI 212324Z 2200/2224 28014G22KT P6SM SCT025 BKN045
      TEMPO 2200/2202 3SM -SHRA BKN022
     FM220400 29014G20KT P6SM VCSH BKN015 OVC025
     FM221800 29012KT P6SM BKN030=

USA.gov is the U.S. government's official web portal to all federal, state and local government web resources and services.